Time;durP1;ratioP1;P1;durP2;ratioP2;P2;SDS_P1;SDS_P2;PMS_P1;PMS_P2;Temp;Humidity;BMP_temperature;BMP_pressure;BME280_temperature;BME280_humidity;BME280_pressure;Samples;Min_cycle;Max_cycle;Signal;HPM_P1;HPM_P2
2022/07/10 00:02:08;;;;;;;4.13;2.10;;;19.50;90.00;;;;;;5073174;28;20509;-67
2022/07/10 00:04:35;;;;;;;3.73;2.60;;;19.40;89.30;;;;;;5072966;28;20440;-65
2022/07/10 00:07:03;;;;;;;4.47;2.57;;;19.40;89.20;;;;;;5072108;28;20436;-65
2022/07/10 00:09:32;;;;;;;3.40;2.47;;;19.40;89.60;;;;;;5072434;28;20444;-65
2022/07/10 00:11:59;;;;;;;6.60;3.10;;;19.40;90.50;;;;;;5072648;28;20444;-65
2022/07/10 00:14:26;;;;;;;3.87;2.70;;;19.40;90.60;;;;;;5072424;28;20440;-65
2022/07/10 00:16:53;;;;;;;3.90;2.70;;;19.30;90.80;;;;;;5072665;28;20489;-65
2022/07/10 00:19:20;;;;;;;5.43;3.10;;;19.30;90.50;;;;;;5072587;28;20440;-65
2022/07/10 00:21:47;;;;;;;5.53;3.57;;;19.20;90.20;;;;;;5072519;28;20487;-66
2022/07/10 00:24:14;;;;;;;4.47;2.50;;;19.20;90.20;;;;;;5072094;28;20996;-71
2022/07/10 00:26:43;;;;;;;5.60;2.70;;;19.10;90.80;;;;;;5072620;28;22065;-66
2022/07/10 00:29:10;;;;;;;3.90;2.23;;;19.10;91.20;;;;;;5072385;28;20498;-66
2022/07/10 00:31:37;;;;;;;5.73;2.80;;;19.10;91.40;;;;;;5072068;28;20964;-66
2022/07/10 00:34:06;;;;;;;4.17;2.80;;;19.00;91.30;;;;;;5072099;28;20958;-66
2022/07/10 00:36:33;;;;;;;4.43;2.90;;;19.00;91.30;;;;;;5071716;28;20483;-65
2022/07/10 00:39:00;;;;;;;5.90;3.37;;;19.00;91.50;;;;;;5072548;28;20945;-65
2022/07/10 00:41:28;;;;;;;4.23;3.80;;;18.90;91.40;;;;;;5072245;28;20942;-65
2022/07/10 00:43:58;;;;;;;4.13;3.20;;;18.90;91.90;;;;;;5072258;28;20792;-65
2022/07/10 00:46:26;;;;;;;5.40;2.87;;;18.80;92.30;;;;;;5072615;28;20941;-65
2022/07/10 00:48:54;;;;;;;4.20;3.13;;;18.80;92.50;;;;;;5072326;28;20436;-65
2022/07/10 00:51:24;;;;;;;4.20;3.80;;;18.80;92.60;;;;;;5072303;28;20442;-66
2022/07/10 00:53:52;;;;;;;5.03;2.90;;;18.70;92.50;;;;;;5071735;28;20444;-65
2022/07/10 00:56:29;;;;;;;6.17;3.67;;;18.70;92.70;;;;;;5072149;28;21005;-66
2022/07/10 00:58:58;;;;;;;4.00;2.93;;;18.60;92.90;;;;;;5072151;28;20435;-65
2022/07/10 01:01:25;;;;;;;4.90;4.00;;;18.60;93.10;;;;;;5072163;28;20881;-65
2022/07/10 01:03:52;;;;;;;7.60;3.73;;;18.60;93.20;;;;;;5071926;28;20443;-65
2022/07/10 01:06:19;;;;;;;4.23;3.30;;;18.60;93.30;;;;;;5072369;28;20440;-66
2022/07/10 01:08:47;;;;;;;6.33;4.10;;;18.60;93.40;;;;;;5071860;28;20472;-66
2022/07/10 01:11:15;;;;;;;5.33;4.23;;;18.60;93.50;;;;;;5071542;28;20443;-65
2022/07/10 01:13:43;;;;;;;5.67;4.00;;;18.60;93.70;;;;;;5070800;28;20432;-66
2022/07/10 01:16:12;;;;;;;4.90;3.57;;;18.70;93.70;;;;;;5071819;28;20480;-65
2022/07/10 01:18:40;;;;;;;4.63;3.40;;;18.60;93.70;;;;;;5074440;28;20527;-65
2022/07/10 01:21:24;;;;;;;4.23;3.70;;;18.60;93.70;;;;;;5076124;28;20857;-66
2022/07/10 01:23:52;;;;;;;5.97;4.57;;;18.60;93.60;;;;;;5075790;28;20452;-65
2022/07/10 01:26:20;;;;;;;7.10;3.63;;;18.60;93.70;;;;;;5075821;28;20497;-65
2022/07/10 01:28:50;;;;;;;5.53;4.10;;;18.60;93.80;;;;;;5075649;28;20443;-66
2022/07/10 01:31:18;;;;;;;5.50;3.83;;;18.60;94.00;;;;;;5075434;28;20848;-65
2022/07/10 01:33:45;;;;;;;5.90;3.70;;;18.50;94.30;;;;;;5075705;28;20444;-63
2022/07/10 01:36:14;;;;;;;5.73;4.27;;;18.50;94.30;;;;;;5075695;28;20973;-63
2022/07/10 01:38:42;;;;;;;4.87;4.37;;;18.50;94.40;;;;;;5074729;28;20435;-66
2022/07/10 01:41:09;;;;;;;6.67;4.90;;;18.50;94.50;;;;;;5055803;28;20441;-66
2022/07/10 01:43:36;;;;;;;7.40;3.90;;;18.40;94.60;;;;;;5074035;28;20440;-66
2022/07/10 01:46:03;;;;;;;5.83;5.03;;;18.40;94.70;;;;;;5075811;28;20436;-66
2022/07/10 01:48:31;;;;;;;10.50;3.83;;;18.40;94.90;;;;;;5074753;28;20527;-66
2022/07/10 01:50:58;;;;;;;5.80;4.10;;;18.40;95.20;;;;;;5075564;28;20905;-65
2022/07/10 01:53:26;;;;;;;7.23;4.40;;;18.30;95.40;;;;;;5075320;28;20443;-66
2022/07/10 01:55:54;;;;;;;3.87;3.40;;;18.30;95.60;;;;;;5075243;28;20439;-66
2022/07/10 01:58:21;;;;;;;4.57;4.17;;;18.30;95.70;;;;;;5074556;28;20439;-66
2022/07/10 02:00:48;;;;;;;7.47;4.43;;;18.30;95.80;;;;;;5075424;28;20436;-66
2022/07/10 02:06:00;;;;;;;8.00;4.70;;;18.30;95.80;;;;;;5075191;28;20435;-66
2022/07/10 02:08:28;;;;;;;5.60;4.20;;;18.30;95.90;;;;;;5075163;28;20436;-66
2022/07/10 02:10:55;;;;;;;5.13;4.07;;;18.30;96.10;;;;;;5074534;28;20436;-66
2022/07/10 02:13:24;;;;;;;5.73;4.60;;;18.30;95.80;;;;;;5075273;28;20566;-65
2022/07/10 02:15:52;;;;;;;4.57;4.03;;;18.30;95.80;;;;;;5074730;28;20444;-66
2022/07/10 02:18:19;;;;;;;5.37;4.13;;;18.30;96.00;;;;;;5074912;28;21003;-66
2022/07/10 02:20:46;;;;;;;4.77;3.80;;;18.20;96.00;;;;;;5074730;28;20514;-65
2022/07/10 02:23:13;;;;;;;6.47;4.77;;;18.20;96.00;;;;;;5074826;28;20523;-66
2022/07/10 02:25:41;;;;;;;7.17;4.43;;;18.20;96.20;;;;;;5074471;28;20833;-66
2022/07/10 02:28:10;;;;;;;4.43;4.03;;;18.20;96.30;;;;;;5074864;28;20467;-66
2022/07/10 02:30:37;;;;;;;6.70;4.40;;;18.20;96.70;;;;;;5073573;28;20436;-67
2022/07/10 02:33:05;;;;;;;5.50;4.13;;;18.20;96.20;;;;;;5074226;28;20945;-66
2022/07/10 02:35:32;;;;;;;5.27;4.77;;;18.20;96.30;;;;;;5074636;28;20498;-66
2022/07/10 02:37:59;;;;;;;6.20;4.53;;;18.10;96.20;;;;;;5074416;28;20811;-66
2022/07/10 02:40:26;;;;;;;5.13;4.63;;;18.00;96.40;;;;;;5074796;28;20436;-66
2022/07/10 02:42:55;;;;;;;5.60;5.10;;;18.00;96.80;;;;;;5073903;28;20530;-66
2022/07/10 02:45:22;;;;;;;5.20;4.57;;;17.80;97.20;;;;;;5074145;28;20436;-66
2022/07/10 02:47:49;;;;;;;5.70;5.13;;;17.80;98.50;;;;;;5074054;28;20472;-65
2022/07/10 02:50:16;;;;;;;5.70;5.07;;;17.70;94.00;;;;;;5074224;28;20478;-66
2022/07/10 02:52:43;;;;;;;5.43;4.90;;;17.70;93.90;;;;;;5074184;28;20440;-66
2022/07/10 02:55:10;;;;;;;5.80;5.10;;;17.70;94.00;;;;;;5074028;28;20543;-68
2022/07/10 02:57:37;;;;;;;7.10;5.43;;;17.70;94.00;;;;;;5074135;28;20479;-66
2022/07/10 03:00:07;;;;;;;5.67;4.90;;;17.70;94.40;;;;;;5073766;28;20489;-67
2022/07/10 03:02:34;;;;;;;5.80;4.67;;;17.60;94.60;;;;;;5074142;28;20439;-66
2022/07/10 03:05:01;;;;;;;6.00;5.20;;;17.60;94.60;;;;;;5073942;28;20985;-65
2022/07/10 03:07:28;;;;;;;6.10;5.50;;;17.50;95.20;;;;;;5073849;28;20475;-66
2022/07/10 03:09:55;;;;;;;6.80;4.50;;;17.30;95.70;;;;;;5073539;28;20932;-65
2022/07/10 03:12:22;;;;;;;6.20;5.47;;;17.40;96.00;;;;;;5074157;28;20477;-65
2022/07/10 03:14:49;;;;;;;7.33;5.10;;;17.40;95.90;;;;;;5073624;28;20467;-65
2022/07/10 03:17:18;;;;;;;5.60;5.10;;;17.40;95.70;;;;;;5073761;28;20491;-65
2022/07/10 03:19:45;;;;;;;6.13;5.63;;;17.40;95.50;;;;;;5073365;28;20447;-65
2022/07/10 03:22:12;;;;;;;6.10;5.00;;;17.50;95.60;;;;;;5073354;28;20436;-66
2022/07/10 03:24:39;;;;;;;8.83;5.47;;;17.50;95.60;;;;;;5073133;28;20436;-65
2022/07/10 03:27:06;;;;;;;18.93;5.63;;;17.50;95.80;;;;;;5073799;28;20467;-66
2022/07/10 03:29:34;;;;;;;7.40;5.47;;;17.60;96.10;;;;;;5073567;28;20848;-66
2022/07/10 03:32:01;;;;;;;5.50;5.00;;;17.60;96.10;;;;;;5073636;28;20493;-66
2022/07/10 03:34:30;;;;;;;5.77;4.80;;;17.60;96.20;;;;;;5073317;28;20447;-65
2022/07/10 03:36:57;;;;;;;6.77;4.80;;;17.60;96.20;;;;;;5073356;28;20479;-66
2022/07/10 03:39:24;;;;;;;6.13;5.10;;;17.70;96.30;;;;;;5073207;28;20466;-66
2022/07/10 03:41:51;;;;;;;7.23;5.33;;;17.70;96.00;;;;;;5073405;28;20444;-65
2022/07/10 03:44:18;;;;;;;4.70;4.30;;;17.70;95.80;;;;;;5072803;28;20432;-65
2022/07/10 03:46:45;;;;;;;9.23;5.67;;;17.70;95.80;;;;;;5073359;28;21000;-66
2022/07/10 03:49:12;;;;;;;9.20;5.13;;;17.60;95.90;;;;;;5073042;28;20440;-66
2022/07/10 03:51:41;;;;;;;6.77;5.23;;;17.60;96.50;;;;;;5072802;28;20801;-66
2022/07/10 03:54:08;;;;;;;8.20;5.30;;;17.70;96.60;;;;;;5073220;28;20447;-67
2022/07/10 03:59:20;;;;;;;6.40;5.00;;;17.70;96.50;;;;;;5073185;28;20427;-65
2022/07/10 04:01:47;;;;;;;6.60;5.67;;;17.70;96.30;;;;;;5072864;28;20444;-65
2022/07/10 04:04:14;;;;;;;5.80;5.30;;;17.70;96.50;;;;;;5073137;28;20440;-68
2022/07/10 04:06:42;;;;;;;6.23;5.63;;;17.70;96.50;;;;;;5072568;28;20514;-66
2022/07/10 04:09:10;;;;;;;6.63;5.63;;;17.70;96.50;;;;;;5072560;28;20432;-65
2022/07/10 04:11:37;;;;;;;5.90;5.00;;;17.60;96.90;;;;;;5072521;28;20923;-65
2022/07/10 04:14:05;;;;;;;7.80;5.67;;;17.60;96.90;;;;;;5072897;28;20456;-66
2022/07/10 04:16:32;;;;;;;7.47;5.27;;;17.60;97.10;;;;;;5072531;28;20497;-66
2022/07/10 04:18:59;;;;;;;6.03;5.07;;;17.70;96.90;;;;;;5073129;28;20930;-66
2022/07/10 04:21:26;;;;;;;6.43;5.30;;;17.70;96.90;;;;;;5072448;28;20440;-66
2022/07/10 04:23:55;;;;;;;6.30;5.70;;;17.70;97.00;;;;;;5052722;28;20437;-66
2022/07/10 04:26:22;;;;;;;9.80;5.83;;;17.70;97.20;;;;;;5052832;28;20804;-65
2022/07/10 04:28:49;;;;;;;8.13;5.57;;;17.80;97.20;;;;;;5072062;28;20446;-66
2022/07/10 04:31:16;;;;;;;7.40;6.07;;;17.80;97.20;;;;;;5072950;28;20493;-66
2022/07/10 04:33:44;;;;;;;6.60;5.90;;;17.90;97.00;;;;;;5072658;28;20436;-66
2022/07/10 04:36:11;;;;;;;6.63;4.97;;;17.90;96.70;;;;;;5072345;28;21002;-65
2022/07/10 04:38:38;;;;;;;6.20;4.97;;;17.90;96.50;;;;;;5072648;28;20483;-66
2022/07/10 04:41:06;;;;;;;8.60;5.20;;;18.00;96.40;;;;;;5072299;28;20441;-66
2022/07/10 04:43:33;;;;;;;5.93;5.17;;;18.00;96.60;;;;;;5072760;28;20444;-65
2022/07/10 04:46:00;;;;;;;7.60;5.33;;;18.10;96.70;;;;;;5072445;28;20475;-65
2022/07/10 04:48:28;;;;;;;6.43;5.83;;;18.10;96.90;;;;;;5072792;28;20870;-65
2022/07/10 04:50:55;;;;;;;6.40;5.80;;;18.10;96.80;;;;;;5072302;28;20785;-66
2022/07/10 04:53:22;;;;;;;6.13;5.43;;;18.20;96.60;;;;;;5072191;28;20446;-66
2022/07/10 04:55:49;;;;;;;6.47;5.70;;;18.30;96.80;;;;;;5072338;28;20448;-65
2022/07/10 04:58:18;;;;;;;7.07;6.23;;;18.40;97.00;;;;;;5072463;28;20514;-66
2022/07/10 05:00:45;;;;;;;6.43;5.80;;;18.40;96.90;;;;;;5072086;28;20440;-65
2022/07/10 05:03:12;;;;;;;7.90;6.37;;;18.50;97.00;;;;;;5072247;28;20436;-66
2022/07/10 05:05:39;;;;;;;7.57;5.10;;;18.50;96.20;;;;;;5072332;28;20462;-67
2022/07/10 05:08:06;;;;;;;8.00;4.90;;;18.60;96.10;;;;;;5072424;28;20477;-66
2022/07/10 05:10:33;;;;;;;6.23;4.60;;;18.60;95.80;;;;;;5071845;28;20448;-66
2022/07/10 05:13:00;;;;;;;9.27;5.80;;;18.60;95.50;;;;;;5072680;28;20448;-66
2022/07/10 05:15:29;;;;;;;8.37;4.97;;;18.50;95.80;;;;;;5072178;28;20489;-65
2022/07/10 05:17:56;;;;;;;8.30;5.80;;;18.60;95.70;;;;;;5072278;28;21064;-66
2022/07/10 05:20:23;;;;;;;9.90;5.97;;;18.60;95.60;;;;;;5071861;28;20440;-65
2022/07/10 05:22:50;;;;;;;6.43;5.40;;;18.60;95.70;;;;;;5072329;28;20510;-66
2022/07/10 05:25:17;;;;;;;6.70;6.10;;;18.60;95.40;;;;;;5071907;28;20501;-65
2022/07/10 05:27:44;;;;;;;5.33;4.77;;;18.70;95.30;;;;;;5072353;28;20467;-66
2022/07/10 05:30:11;;;;;;;7.13;5.57;;;18.80;95.10;;;;;;5071964;28;20432;-63
2022/07/10 05:32:45;;;;;;;5.80;5.20;;;18.80;94.80;;;;;;5072064;28;20455;-63
2022/07/10 05:35:13;;;;;;;7.63;5.83;;;18.90;94.40;;;;;;5071918;28;20934;-63
2022/07/10 05:37:42;;;;;;;5.70;4.53;;;18.90;94.20;;;;;;5072342;28;20479;-64
2022/07/10 05:40:10;;;;;;;10.37;5.30;;;18.90;94.20;;;;;;5071640;28;20813;-63
2022/07/10 05:42:37;;;;;;;4.83;4.33;;;18.90;93.90;;;;;;5072024;28;20847;-63
2022/07/10 05:45:06;;;;;;;6.83;5.00;;;18.90;93.70;;;;;;5071777;28;20440;-63
2022/07/10 05:47:34;;;;;;;7.03;5.60;;;18.90;93.70;;;;;;5072020;28;20431;-64
2022/07/10 05:50:02;;;;;;;5.27;4.63;;;18.90;93.50;;;;;;5071500;28;20543;-63
2022/07/10 05:52:30;;;;;;;5.50;4.40;;;18.80;93.30;;;;;;5071619;28;20458;-63
2022/07/10 05:54:57;;;;;;;6.93;5.27;;;18.90;93.40;;;;;;5072131;28;20432;-63
2022/07/10 05:57:24;;;;;;;6.00;5.07;;;18.80;93.40;;;;;;5071712;28;20472;-63
2022/07/10 05:59:52;;;;;;;6.40;4.77;;;18.80;93.30;;;;;;5071988;28;20995;-63
2022/07/10 06:02:19;;;;;;;6.27;5.07;;;18.80;93.20;;;;;;5070974;28;20436;-63
2022/07/10 06:04:46;;;;;;;5.53;4.33;;;18.80;93.30;;;;;;5072821;28;20444;-63
2022/07/10 06:07:15;;;;;;;6.17;5.40;;;18.80;93.30;;;;;;5075520;28;20493;-63
2022/07/10 06:09:42;;;;;;;5.97;4.40;;;18.80;93.00;;;;;;5075166;28;20431;-63
2022/07/10 06:12:10;;;;;;;6.33;4.57;;;18.80;93.00;;;;;;5075460;28;20510;-63
2022/07/10 06:14:37;;;;;;;5.40;4.40;;;18.80;93.30;;;;;;5074019;28;20523;-63
2022/07/10 06:17:04;;;;;;;5.60;4.70;;;18.80;93.20;;;;;;5074700;28;20440;-63
2022/07/10 06:19:31;;;;;;;7.73;5.57;;;18.70;92.70;;;;;;5075293;28;20505;-63
2022/07/10 06:24:53;;;;;;;5.50;4.80;;;18.70;92.90;;;;;;5038878;28;20435;-63
2022/07/10 06:27:20;;;;;;;6.10;5.10;;;18.80;92.80;;;;;;5074510;28;20505;-63
2022/07/10 06:29:47;;;;;;;5.80;5.17;;;18.80;92.40;;;;;;5074810;28;20863;-63
2022/07/10 06:32:14;;;;;;;5.37;4.37;;;18.90;92.30;;;;;;5074537;28;20463;-63
2022/07/10 06:34:41;;;;;;;5.70;4.77;;;18.90;92.20;;;;;;5075088;28;20792;-63
2022/07/10 06:37:08;;;;;;;6.40;5.10;;;18.90;91.80;;;;;;5074506;28;20431;-63
2022/07/10 06:39:36;;;;;;;7.40;5.17;;;18.90;91.80;;;;;;5074495;28;20476;-64
2022/07/10 06:42:06;;;;;;;5.83;5.23;;;18.90;91.70;;;;;;5074851;28;20440;-64
2022/07/10 06:44:33;;;;;;;6.50;5.53;;;18.90;91.70;;;;;;5074988;28;20867;-64
2022/07/10 06:49:46;;;;;;;7.13;5.23;;;18.90;92.20;;;;;;5072944;28;20995;-66
2022/07/10 06:52:13;;;;;;;7.07;5.43;;;18.90;92.50;;;;;;5072729;28;20514;-66
2022/07/10 06:54:40;;;;;;;7.03;5.10;;;18.90;92.50;;;;;;5072803;28;20440;-66
2022/07/10 06:57:09;;;;;;;5.60;5.00;;;19.00;92.20;;;;;;5072347;28;20485;-66
2022/07/10 06:59:36;;;;;;;5.87;5.27;;;19.00;92.20;;;;;;5072746;28;20541;-65
2022/07/10 07:02:04;;;;;;;6.47;5.20;;;19.00;92.00;;;;;;5072333;28;20447;-67
2022/07/10 07:04:31;;;;;;;5.73;5.23;;;19.20;92.20;;;;;;5068534;28;20937;-65
2022/07/10 07:06:58;;;;;;;8.23;5.47;;;19.20;92.10;;;;;;5072494;28;20440;-66
2022/07/10 07:09:25;;;;;;;6.90;5.23;;;19.30;92.30;;;;;;5072546;28;20443;-66
2022/07/10 07:11:52;;;;;;;5.60;5.00;;;19.40;92.10;;;;;;5072144;28;20532;-67
2022/07/10 07:14:20;;;;;;;6.40;5.80;;;19.50;91.50;;;;;;5072433;28;20444;-66
2022/07/10 07:16:57;;;;;;;7.23;4.37;;;19.60;91.60;;;;;;5071880;28;20451;-66
2022/07/10 07:19:30;;;;;;;5.20;4.70;;;19.60;91.30;;;;;;5071928;28;20486;-66
2022/07/10 07:24:43;;;;;;;7.00;5.37;;;19.70;90.40;;;;;;5072273;28;20994;-66
2022/07/10 07:27:10;;;;;;;5.87;5.27;;;19.60;90.00;;;;;;5071974;28;21652;-66
2022/07/10 07:29:39;;;;;;;7.50;4.87;;;19.60;89.70;;;;;;5072144;28;20919;-66
2022/07/10 07:32:07;;;;;;;6.40;5.03;;;19.50;90.00;;;;;;5071647;28;20448;-67
2022/07/10 07:34:34;;;;;;;6.40;5.30;;;19.50;90.00;;;;;;5072169;28;20436;-66
2022/07/10 07:37:01;;;;;;;7.30;5.27;;;19.50;89.60;;;;;;5072177;28;20975;-66
2022/07/10 07:39:28;;;;;;;6.53;4.83;;;19.50;89.60;;;;;;5071863;28;20993;-66
2022/07/10 07:41:55;;;;;;;5.63;5.03;;;19.50;90.10;;;;;;5071602;28;20929;-63
2022/07/10 07:44:22;;;;;;;7.00;5.43;;;19.60;90.20;;;;;;5071765;28;20486;-63
2022/07/10 07:46:51;;;;;;;5.87;5.03;;;19.70;89.20;;;;;;5071725;28;20975;-63
2022/07/10 07:49:18;;;;;;;6.57;5.33;;;19.80;88.50;;;;;;5071370;28;20873;-65
2022/07/10 07:51:45;;;;;;;7.03;5.10;;;19.90;88.10;;;;;;5067521;28;20463;-64
2022/07/10 07:54:12;;;;;;;5.10;4.20;;;20.00;88.20;;;;;;5071714;28;20498;-64
2022/07/10 07:56:39;;;;;;;8.10;4.70;;;20.10;88.60;;;;;;5071558;28;20440;-63
2022/07/10 07:59:10;;;;;;;8.60;5.20;;;20.30;88.50;;;;;;5071312;28;20486;-64
2022/07/10 08:01:38;;;;;;;5.23;4.57;;;20.40;87.40;;;;;;5068387;28;20839;-63
2022/07/10 08:04:06;;;;;;;6.63;4.73;;;20.40;86.20;;;;;;5071578;28;20451;-65
2022/07/10 08:06:33;;;;;;;5.13;4.03;;;20.40;84.80;;;;;;5071472;28;20977;-64
2022/07/10 08:09:01;;;;;;;5.40;4.90;;;20.40;84.00;;;;;;5066864;28;20603;-64
2022/07/10 08:11:28;;;;;;;6.40;3.97;;;20.40;83.70;;;;;;5071429;28;20954;-64
2022/07/10 08:13:55;;;;;;;5.00;4.00;;;20.30;83.10;;;;;;5071264;28;20950;-64
2022/07/10 08:16:22;;;;;;;4.80;4.10;;;20.10;82.20;;;;;;5071182;28;20540;-65
2022/07/10 08:18:50;;;;;;;5.50;4.47;;;20.10;83.00;;;;;;5066822;28;20503;-64
2022/07/10 08:21:18;;;;;;;4.70;3.60;;;20.10;83.40;;;;;;5071360;28;20452;-64
2022/07/10 08:23:45;;;;;;;5.93;5.20;;;20.10;83.30;;;;;;5071215;28;20444;-64
2022/07/10 08:26:12;;;;;;;5.47;4.77;;;20.10;82.90;;;;;;5070782;28;20472;-64
2022/07/10 08:28:39;;;;;;;4.70;3.93;;;20.00;83.20;;;;;;5070584;28;20548;-69
2022/07/10 08:31:06;;;;;;;5.70;4.73;;;20.10;83.40;;;;;;5068192;28;20494;-64
2022/07/10 08:33:34;;;;;;;4.23;3.83;;;20.10;83.20;;;;;;5070091;28;20466;-65
2022/07/10 08:36:01;;;;;;;4.53;3.90;;;20.00;82.50;;;;;;5070547;28;20447;-64
2022/07/10 08:38:29;;;;;;;4.87;4.37;;;20.10;82.30;;;;;;5070781;28;20487;-64
2022/07/10 08:40:58;;;;;;;5.80;3.87;;;20.00;82.40;;;;;;5070838;28;20926;-64
2022/07/10 08:43:26;;;;;;;6.67;4.10;;;20.10;82.50;;;;;;5070865;28;20443;-64
2022/07/10 08:45:54;;;;;;;6.33;4.00;;;20.10;82.10;;;;;;5064943;28;20443;-64
2022/07/10 08:48:24;;;;;;;4.83;4.33;;;20.20;82.60;;;;;;5070751;28;20443;-64
2022/07/10 08:50:54;;;;;;;6.47;4.17;;;20.30;82.60;;;;;;5070757;28;20436;-64
2022/07/10 08:53:29;;;;;;;5.90;4.20;;;20.50;82.60;;;;;;5070566;28;20466;-64
2022/07/10 08:55:58;;;;;;;6.13;4.10;;;20.60;79.70;;;;;;5070443;28;20432;-67
2022/07/10 08:58:27;;;;;;;9.83;3.47;;;20.80;80.00;;;;;;5068651;28;21007;-68
2022/07/10 09:00:54;;;;;;;4.77;4.27;;;21.20;80.60;;;;;;5070271;28;20833;-67
2022/07/10 09:03:21;;;;;;;6.47;4.30;;;21.70;80.20;;;;;;5070406;28;20486;-67
2022/07/10 09:05:51;;;;;;;5.10;4.03;;;22.20;78.60;;;;;;5070340;28;20796;-67
2022/07/10 09:08:24;;;;;;;5.90;3.30;;;22.40;77.60;;;;;;5069724;28;20507;-72
2022/07/10 09:10:51;;;;;;;4.07;2.83;;;22.70;75.00;;;;;;5070194;28;20444;-67
2022/07/10 09:13:20;;;;;;;3.80;2.80;;;22.90;74.90;;;;;;5065048;28;20498;-67
2022/07/10 09:15:50;;;;;;;4.40;2.90;;;23.20;72.80;;;;;;5068518;28;20447;-65
2022/07/10 09:18:25;;;;;;;4.23;2.80;;;23.40;68.10;;;;;;5069405;28;20440;-65
2022/07/10 09:20:52;;;;;;;5.33;2.90;;;23.30;65.70;;;;;;5069546;28;20848;-66
2022/07/10 09:23:20;;;;;;;4.03;2.80;;;23.10;64.90;;;;;;5069416;28;20494;-64
2022/07/10 09:25:48;;;;;;;4.80;2.97;;;22.90;65.30;;;;;;5069869;28;20444;-64
2022/07/10 09:28:19;;;;;;;4.60;3.20;;;23.00;66.40;;;;;;5069563;28;20603;-64
2022/07/10 09:30:47;;;;;;;3.10;2.23;;;23.10;67.60;;;;;;5069097;28;20442;-65
2022/07/10 09:33:25;;;;;;;5.13;2.70;;;23.30;68.40;;;;;;5069368;28;20449;-64
2022/07/10 09:36:07;;;;;;;3.80;2.50;;;23.50;66.00;;;;;;5069095;28;20465;-66
2022/07/10 09:38:57;;;;;;;2.77;2.37;;;23.60;65.20;;;;;;5062529;28;20486;-66
2022/07/10 09:41:26;;;;;;;5.20;2.77;;;23.70;61.00;;;;;;5064267;28;20540;-72
2022/07/10 09:43:56;;;;;;;3.57;2.70;;;23.70;61.90;;;;;;5065917;28;20478;-69
2022/07/10 09:46:26;;;;;;;3.60;2.83;;;23.80;62.70;;;;;;5062687;28;20532;-65
2022/07/10 09:49:10;;;;;;;6.60;2.50;;;23.90;60.10;;;;;;5071772;28;20555;-68
2022/07/10 09:51:39;;;;;;;4.57;2.47;;;24.00;61.00;;;;;;5071719;28;20445;-69
2022/07/10 09:54:08;;;;;;;4.80;2.50;;;24.10;61.90;;;;;;5071988;28;20442;-67
2022/07/10 09:56:44;;;;;;;3.30;2.13;;;24.20;62.40;;;;;;5071805;28;20490;-67
2022/07/10 09:59:14;;;;;;;3.53;2.40;;;24.40;61.40;;;;;;5070054;28;20894;-67
2022/07/10 10:01:47;;;;;;;4.70;2.60;;;24.60;62.10;;;;;;5070255;28;20922;-68
2022/07/10 10:04:15;;;;;;;8.43;2.47;;;24.70;61.60;;;;;;5069885;28;20442;-65
2022/07/10 10:06:43;;;;;;;3.20;2.23;;;24.90;60.50;;;;;;5072534;28;20440;-65
2022/07/10 10:09:16;;;;;;;4.70;2.70;;;25.10;59.10;;;;;;5072492;28;20436;-65
2022/07/10 10:11:45;;;;;;;4.43;2.43;;;25.30;67.20;;;;;;5068852;28;20501;-67
2022/07/10 10:14:20;;;;;;;4.00;2.17;;;25.70;68.50;;;;;;5072112;28;20497;-68
2022/07/10 10:16:48;;;;;;;3.63;2.30;;;26.20;67.50;;;;;;5072150;28;20914;-66
2022/07/10 10:22:03;;;;;;;5.40;2.10;;;26.40;57.30;;;;;;5071941;28;20426;-65
2022/07/10 10:24:33;;;;;;;3.67;2.10;;;26.40;56.00;;;;;;5072138;28;20569;-64
2022/07/10 10:27:02;;;;;;;2.70;1.90;;;26.20;57.10;;;;;;5069089;28;20825;-65
2022/07/10 10:29:31;;;;;;;3.37;2.70;;;26.10;57.00;;;;;;5071053;28;20519;-65
2022/07/10 10:31:59;;;;;;;6.80;2.60;;;25.90;57.30;;;;;;5071918;28;20440;-64
2022/07/10 10:34:43;;;;;;;2.77;1.67;;;26.00;58.70;;;;;;5072205;28;20443;-65
2022/07/10 10:37:36;;;;;;;5.23;2.20;;;26.10;57.70;;;;;;5071032;28;20797;-64
2022/07/10 10:40:04;;;;;;;4.57;2.03;;;26.20;57.30;;;;;;5072054;28;20471;-65
2022/07/10 10:42:34;;;;;;;5.53;2.40;;;26.30;58.00;;;;;;5072235;28;20535;-65
2022/07/10 10:45:27;;;;;;;2.70;1.80;;;26.40;56.80;;;;;;5071229;28;20519;-66
2022/07/10 10:48:02;;;;;;;3.87;2.13;;;26.40;55.40;;;;;;5071678;28;20436;-68
2022/07/10 10:50:41;;;;;;;5.50;2.03;;;26.50;56.60;;;;;;5070828;28;20465;-65
2022/07/10 10:53:19;;;;;;;8.93;2.30;;;26.50;56.90;;;;;;5071767;28;20432;-65
2022/07/10 10:56:24;;;;;;;4.60;2.03;;;26.60;57.30;;;;;;5071726;28;20854;-65
2022/07/10 10:58:52;;;;;;;3.33;2.03;;;26.80;57.00;;;;;;5061838;28;20471;-65
2022/07/10 11:01:30;;;;;;;3.30;1.97;;;26.90;55.60;;;;;;5071766;28;20451;-65
2022/07/10 11:04:19;;;;;;;3.53;2.07;;;26.70;53.80;;;;;;5070745;28;20903;-65
2022/07/10 11:06:49;;;;;;;3.73;2.03;;;26.60;54.60;;;;;;5057346;28;20444;-65
2022/07/10 11:09:26;;;;;;;4.63;2.27;;;26.20;53.40;;;;;;5070887;28;20467;-65
2022/07/10 11:12:01;;;;;;;5.13;2.17;;;25.90;53.60;;;;;;5071409;28;20852;-65
2022/07/10 11:14:29;;;;;;;4.20;1.93;;;25.50;54.40;;;;;;5071260;28;20431;-65
2022/07/10 11:16:58;;;;;;;4.97;1.93;;;25.10;54.60;;;;;;5070091;28;20436;-65
2022/07/10 11:19:27;;;;;;;6.83;2.50;;;24.80;55.10;;;;;;5071467;28;20536;-65
2022/07/10 11:22:19;;;;;;;6.60;1.77;;;24.50;55.80;;;;;;5070888;28;20462;-66
2022/07/10 11:24:55;;;;;;;3.47;1.90;;;24.40;57.10;;;;;;5044608;28;20447;-66
2022/07/10 11:27:35;;;;;;;3.70;1.87;;;24.50;58.30;;;;;;5070821;28;20459;-65
2022/07/10 11:30:03;;;;;;;2.87;1.87;;;24.80;59.80;;;;;;5070504;28;20436;-65
2022/07/10 11:32:31;;;;;;;3.30;1.90;;;25.10;59.80;;;;;;5071434;28;20444;-65
2022/07/10 11:34:59;;;;;;;3.07;1.87;;;25.30;58.20;;;;;;5070945;28;20438;-68
2022/07/10 11:37:29;;;;;;;2.80;1.67;;;25.50;57.50;;;;;;5070752;28;20812;-65
2022/07/10 11:40:10;;;;;;;4.53;1.90;;;25.60;56.40;;;;;;5070556;28;20482;-70
2022/07/10 11:42:54;;;;;;;4.63;2.20;;;25.80;57.90;;;;;;5071395;28;20436;-65
2022/07/10 11:45:30;;;;;;;2.60;1.90;;;25.90;56.00;;;;;;5067907;28;20432;-65
2022/07/10 11:47:59;;;;;;;4.43;2.20;;;26.10;55.10;;;;;;5070142;28;20534;-65
2022/07/10 11:50:27;;;;;;;4.80;2.07;;;26.20;55.70;;;;;;5070917;28;20447;-65
2022/07/10 11:52:55;;;;;;;4.90;2.30;;;26.30;56.30;;;;;;5070719;28;20439;-69
2022/07/10 11:55:24;;;;;;;3.67;1.77;;;26.50;57.20;;;;;;5070044;28;20441;-66
2022/07/10 11:57:52;;;;;;;5.43;1.83;;;26.80;56.90;;;;;;5070004;28;20436;-66
2022/07/10 12:00:25;;;;;;;5.20;2.33;;;26.90;53.90;;;;;;5070246;28;20572;-65
2022/07/10 12:02:52;;;;;;;3.37;1.60;;;26.80;53.40;;;;;;5070352;28;21037;-67
2022/07/10 12:05:36;;;;;;;4.13;1.87;;;26.80;53.60;;;;;;5070570;28;20435;-65
2022/07/10 12:08:05;;;;;;;6.40;1.73;;;26.80;53.70;;;;;;5068998;28;20439;-66
2022/07/10 12:10:35;;;;;;;6.80;1.97;;;26.70;53.20;;;;;;5070151;28;20958;-68
2022/07/10 12:13:07;;;;;;;2.50;1.40;;;26.60;52.90;;;;;;5070871;28;20458;-65
2022/07/10 12:15:37;;;;;;;4.00;2.00;;;26.50;54.10;;;;;;5070210;28;20523;-66
2022/07/10 12:18:05;;;;;;;6.53;1.67;;;26.30;52.10;;;;;;5069079;28;20440;-66
2022/07/10 12:20:33;;;;;;;3.67;1.77;;;26.00;51.90;;;;;;5070790;28;20977;-66
2022/07/10 12:23:02;;;;;;;3.53;1.90;;;25.70;51.40;;;;;;5070102;28;20438;-65
2022/07/10 12:25:29;;;;;;;7.10;1.63;;;25.60;53.20;;;;;;5069977;28;20965;-66
2022/07/10 12:27:58;;;;;;;4.57;1.70;;;25.50;54.00;;;;;;5070159;28;21004;-65
2022/07/10 12:30:39;;;;;;;4.33;1.80;;;25.40;53.40;;;;;;5070122;28;20962;-65
2022/07/10 12:33:15;;;;;;;2.90;1.50;;;25.30;53.70;;;;;;5066433;28;20481;-66
2022/07/10 12:35:54;;;;;;;3.93;2.03;;;25.20;53.50;;;;;;5071192;28;20440;-65
2022/07/10 12:38:24;;;;;;;2.30;1.33;;;25.10;55.00;;;;;;5070387;28;20768;-65
2022/07/10 12:40:52;;;;;;;3.10;1.53;;;25.10;56.00;;;;;;5071024;28;20681;-65
2022/07/10 12:43:27;;;;;;;2.40;1.50;;;25.10;55.60;;;;;;5070365;28;20489;-68
2022/07/10 12:46:14;;;;;;;2.90;1.60;;;25.20;55.10;;;;;;5068179;28;20474;-65
2022/07/10 12:48:44;;;;;;;4.73;1.63;;;25.30;54.30;;;;;;5068910;28;20794;-65
2022/07/10 12:51:22;;;;;;;2.60;1.37;;;25.50;54.40;;;;;;5069867;28;20475;-65
2022/07/10 12:53:50;;;;;;;4.23;1.60;;;25.60;54.10;;;;;;5069286;28;20458;-65
2022/07/10 12:56:42;;;;;;;2.80;1.80;;;25.80;54.80;;;;;;5071063;28;20440;-65
2022/07/10 12:59:14;;;;;;;3.53;1.60;;;25.80;52.40;;;;;;5054875;28;20436;-65
2022/07/10 13:01:44;;;;;;;3.23;1.83;;;25.90;52.30;;;;;;5070580;28;20493;-65
2022/07/10 13:04:12;;;;;;;3.30;1.73;;;25.90;51.60;;;;;;5066661;28;20454;-65
2022/07/10 13:06:40;;;;;;;2.30;1.40;;;26.00;50.80;;;;;;5070561;28;20444;-65
2022/07/10 13:09:23;;;;;;;5.77;1.60;;;26.10;52.10;;;;;;5070548;28;20841;-65
2022/07/10 13:11:51;;;;;;;2.67;1.60;;;26.30;52.60;;;;;;5070863;28;20451;-65
2022/07/10 13:14:18;;;;;;;4.37;1.90;;;26.40;52.60;;;;;;5071446;28;20497;-65